createdAt,value
2018-09-08T00:00:49.610Z,19.23
2018-09-08T00:03:18.636Z,12.73
2018-09-08T00:05:47.626Z,9.00
2018-09-08T00:08:16.613Z,9.50
2018-09-08T00:10:45.717Z,7.67
2018-09-08T00:13:14.826Z,7.70
2018-09-08T00:15:49.102Z,10.80
2018-09-08T00:18:23.322Z,8.90
2018-09-08T00:20:57.495Z,7.83
2018-09-08T00:23:31.574Z,8.07
2018-09-08T00:26:05.750Z,9.03
2018-09-08T00:28:39.779Z,9.97
2018-09-08T00:31:12.703Z,8.07
2018-09-08T00:33:41.482Z,9.13
2018-09-08T00:36:10.554Z,7.27
2018-09-08T00:38:39.966Z,8.63
2018-09-08T00:41:08.722Z,8.63
2018-09-08T00:43:37.705Z,9.20
2018-09-08T00:46:06.703Z,7.67
2018-09-08T00:48:35.475Z,7.43
2018-09-08T00:51:04.330Z,9.13
2018-09-08T00:53:33.093Z,9.20
2018-09-08T00:56:01.867Z,7.57
2018-09-08T00:58:30.650Z,7.03
2018-09-08T01:00:59.430Z,8.77
2018-09-08T01:03:28.254Z,8.00
2018-09-08T01:05:56.985Z,6.17
2018-09-08T01:08:25.767Z,6.83
2018-09-08T01:10:54.570Z,8.20
2018-09-08T01:13:23.381Z,6.97
2018-09-08T01:15:52.303Z,8.73
2018-09-08T01:18:21.081Z,6.47
2018-09-08T01:20:49.889Z,6.30
2018-09-08T01:23:18.698Z,7.50
2018-09-08T01:25:47.458Z,7.57
2018-09-08T01:28:16.222Z,8.73
2018-09-08T01:30:45.022Z,6.53
2018-09-08T01:33:13.798Z,11.20
2018-09-08T01:35:42.572Z,8.90
2018-09-08T01:38:11.322Z,8.27
2018-09-08T01:40:40.149Z,9.67
2018-09-08T01:43:09.130Z,7.63
2018-09-08T01:45:37.883Z,9.47
2018-09-08T01:48:06.713Z,6.70
2018-09-08T01:50:35.475Z,10.03
2018-09-08T01:53:04.246Z,8.23
2018-09-08T01:55:32.998Z,6.33
2018-09-08T01:58:01.771Z,8.70
2018-09-08T02:00:30.569Z,7.50
2018-09-08T02:02:59.338Z,6.20
2018-09-08T02:05:28.134Z,6.57
2018-09-08T02:07:56.877Z,10.43
2018-09-08T02:10:25.657Z,8.37
2018-09-08T02:12:54.495Z,6.07
2018-09-08T02:15:23.317Z,9.60
2018-09-08T02:17:52.088Z,6.23
2018-09-08T02:20:20.850Z,6.40
2018-09-08T02:22:50.208Z,8.40
2018-09-08T02:25:19.248Z,6.80
2018-09-08T02:27:48.331Z,7.53
2018-09-08T02:30:17.106Z,6.40
2018-09-08T02:32:46.103Z,8.03
2018-09-08T02:35:15.214Z,7.90
2018-09-08T02:37:44.321Z,8.07
2018-09-08T02:40:13.278Z,6.03
2018-09-08T02:42:42.394Z,7.27
2018-09-08T02:45:11.494Z,12.33
2018-09-08T02:47:40.583Z,9.03
2018-09-08T02:50:20.742Z,8.13
2018-09-08T02:52:48.392Z,10.07
2018-09-08T02:55:16.062Z,6.60
2018-09-08T02:57:43.766Z,6.77
2018-09-08T03:00:11.386Z,6.07
2018-09-08T03:02:39.042Z,6.77
2018-09-08T03:05:06.703Z,8.90
2018-09-08T03:07:34.409Z,6.27
2018-09-08T03:10:02.123Z,7.80
2018-09-08T03:12:29.790Z,8.93
2018-09-08T03:14:57.451Z,8.00
2018-09-08T03:17:25.109Z,11.00
2018-09-08T03:19:52.769Z,6.17
2018-09-08T03:22:20.428Z,7.13
2018-09-08T03:24:48.202Z,9.80
2018-09-08T03:27:15.964Z,11.77
2018-09-08T03:29:43.617Z,7.23
2018-09-08T03:32:11.898Z,6.87
2018-09-08T03:34:39.559Z,9.23
2018-09-08T03:37:07.218Z,6.17
2018-09-08T03:39:34.881Z,7.03
2018-09-08T03:42:02.450Z,10.03
2018-09-08T03:44:30.130Z,7.93
2018-09-08T03:46:57.746Z,7.03
2018-09-08T03:49:25.438Z,9.43
2018-09-08T03:51:53.085Z,7.73
2018-09-08T03:54:20.730Z,7.57
2018-09-08T03:56:48.444Z,9.83
2018-09-08T03:59:16.062Z,10.97
2018-09-08T04:01:43.714Z,9.37
2018-09-08T04:04:12.831Z,7.60
2018-09-08T04:06:41.912Z,10.00
2018-09-08T04:09:11.766Z,9.63
2018-09-08T04:11:40.806Z,7.53
2018-09-08T04:14:10.166Z,12.60
2018-09-08T04:16:39.254Z,8.77
2018-09-08T04:19:08.446Z,8.27
2018-09-08T04:21:37.606Z,10.00
2018-09-08T04:24:06.964Z,10.73
2018-09-08T04:26:35.990Z,10.50
2018-09-08T04:29:05.302Z,9.77
2018-09-08T04:31:34.273Z,7.07
2018-09-08T04:34:03.406Z,9.63
2018-09-08T04:36:32.370Z,8.30
2018-09-08T04:39:01.491Z,8.37
2018-09-08T04:41:31.018Z,6.77
2018-09-08T04:44:00.190Z,8.30
2018-09-08T04:46:29.514Z,12.80
2018-09-08T04:48:58.657Z,9.37
2018-09-08T04:51:27.695Z,8.93
2018-09-08T04:53:56.862Z,9.17
2018-09-08T04:56:25.946Z,7.53
2018-09-08T04:58:55.151Z,7.17
2018-09-08T05:01:24.342Z,7.93
2018-09-08T05:03:53.442Z,9.47
2018-09-08T05:06:22.214Z,7.10
2018-09-08T05:08:51.218Z,10.50
2018-09-08T05:11:20.318Z,9.20
2018-09-08T05:13:49.975Z,11.03
2018-09-08T05:16:19.006Z,8.37
2018-09-08T05:18:48.102Z,8.20
2018-09-08T05:21:17.206Z,9.07
2018-09-08T05:23:52.846Z,8.53
2018-09-08T05:26:21.862Z,10.13
2018-09-08T05:28:50.894Z,7.93
2018-09-08T05:31:19.910Z,8.57
2018-09-08T05:33:49.037Z,11.30
2018-09-08T05:36:18.220Z,8.63
2018-09-08T05:38:47.210Z,8.80
2018-09-08T05:41:15.982Z,7.43
2018-09-08T05:43:44.750Z,8.70
2018-09-08T05:46:13.766Z,8.47
2018-09-08T05:48:42.846Z,12.23
2018-09-08T05:51:11.857Z,8.20
2018-09-08T05:53:40.854Z,7.67
2018-09-08T05:56:09.784Z,6.47
2018-09-08T05:58:38.970Z,9.13
2018-09-08T06:01:07.815Z,8.30
2018-09-08T06:03:36.827Z,8.07
2018-09-08T06:06:05.824Z,7.77
2018-09-08T06:08:34.902Z,7.53
2018-09-08T06:11:04.410Z,6.90
2018-09-08T06:13:33.402Z,8.40
2018-09-08T06:16:02.626Z,11.30
2018-09-08T06:18:31.603Z,9.30
2018-09-08T06:21:01.086Z,7.70
2018-09-08T06:23:30.088Z,7.70
2018-09-08T06:25:59.033Z,9.50
2018-09-08T06:28:28.563Z,10.57
2018-09-08T06:30:57.672Z,7.67
2018-09-08T06:33:26.771Z,8.80
2018-09-08T06:35:55.813Z,6.90
2018-09-08T06:38:24.887Z,8.27
2018-09-08T06:40:54.002Z,10.97
2018-09-08T06:43:22.823Z,8.00
2018-09-08T06:45:51.650Z,9.03
2018-09-08T06:48:20.734Z,9.27
2018-09-08T06:50:49.570Z,9.00
2018-09-08T06:53:18.343Z,11.03
2018-09-08T06:55:47.135Z,6.77
2018-09-08T06:58:16.021Z,7.87
2018-09-08T07:00:45.183Z,7.83
2018-09-08T07:03:14.029Z,9.47
2018-09-08T07:05:42.880Z,7.53
2018-09-08T07:08:11.685Z,10.13
2018-09-08T07:10:40.838Z,13.47
2018-09-08T07:13:09.630Z,13.77
2018-09-08T07:15:38.565Z,11.40
2018-09-08T07:18:07.378Z,10.93
2018-09-08T07:20:36.170Z,9.07
2018-09-08T07:23:05.127Z,11.13
2018-09-08T07:25:34.046Z,10.17
2018-09-08T07:28:02.855Z,11.27
2018-09-08T07:30:31.751Z,8.60
2018-09-08T07:33:00.854Z,10.63
2018-09-08T07:35:29.735Z,10.33
2018-09-08T07:37:58.530Z,9.93
2018-09-08T07:40:27.339Z,9.37
2018-09-08T07:42:56.124Z,9.30
2018-09-08T07:45:24.946Z,9.60
2018-09-08T07:47:53.770Z,9.67
2018-09-08T07:50:22.586Z,9.83
2018-09-08T07:52:51.450Z,7.67
2018-09-08T07:55:20.222Z,8.73
2018-09-08T07:57:48.993Z,9.37
2018-09-08T08:00:18.626Z,10.13
2018-09-08T08:02:47.942Z,10.17
2018-09-08T08:05:16.782Z,9.57
2018-09-08T08:07:45.594Z,11.00
2018-09-08T08:10:14.609Z,10.50
2018-09-08T08:12:43.382Z,9.47
2018-09-08T08:15:12.151Z,9.53
2018-09-08T08:17:40.938Z,12.27
2018-09-08T08:20:10.054Z,9.37
2018-09-08T08:22:39.158Z,10.63
2018-09-08T08:25:08.290Z,10.77
2018-09-08T08:27:37.438Z,13.60
2018-09-08T08:30:06.330Z,14.10
2018-09-08T08:32:35.342Z,10.47
2018-09-08T08:35:04.730Z,11.13
2018-09-08T08:37:33.724Z,10.50
2018-09-08T08:40:02.844Z,11.43
2018-09-08T08:42:31.698Z,10.40
2018-09-08T08:45:00.551Z,11.07
2018-09-08T08:47:29.395Z,10.20
2018-09-08T08:50:09.325Z,9.87
2018-09-08T08:52:49.289Z,7.40
2018-09-08T08:55:18.170Z,7.13
2018-09-08T08:57:47.272Z,5.77
2018-09-08T09:00:16.475Z,5.67
2018-09-08T09:02:45.880Z,4.57
2018-09-08T09:05:16.382Z,5.60
2018-09-08T09:07:45.515Z,4.60
2018-09-08T09:10:14.409Z,3.73
2018-09-08T09:12:43.255Z,4.93
2018-09-08T09:15:12.807Z,4.00
2018-09-08T09:17:41.815Z,3.77
2018-09-08T09:20:21.527Z,4.40
2018-09-08T09:23:02.043Z,3.83
2018-09-08T09:25:31.176Z,3.50
2018-09-08T09:27:59.974Z,3.60
2018-09-08T09:30:28.757Z,4.07
2018-09-08T09:32:57.826Z,4.03
2018-09-08T09:35:26.606Z,5.83
2018-09-08T09:37:55.698Z,3.30
2018-09-08T09:40:24.702Z,5.37
2018-09-08T09:42:53.782Z,4.10
2018-09-08T09:45:22.580Z,3.70
2018-09-08T09:47:51.674Z,4.47
2018-09-08T09:50:20.486Z,3.87
2018-09-08T09:52:49.455Z,4.00
2018-09-08T09:55:18.554Z,4.47
2018-09-08T09:57:47.659Z,4.17
2018-09-08T10:00:21.686Z,4.33
2018-09-08T10:02:54.658Z,6.00
2018-09-08T10:05:24.406Z,4.20
2018-09-08T10:07:54.002Z,4.17
2018-09-08T10:10:27.298Z,4.30
2018-09-08T10:12:56.122Z,5.60
2018-09-08T10:15:25.446Z,4.80
2018-09-08T10:17:54.265Z,5.13
2018-09-08T10:20:23.882Z,6.23
2018-09-08T10:22:52.819Z,7.67
2018-09-08T10:25:22.025Z,5.20
2018-09-08T10:27:50.917Z,5.90
2018-09-08T10:30:19.737Z,6.40
2018-09-08T10:32:48.798Z,6.73
2018-09-08T10:35:17.610Z,5.63
2018-09-08T10:37:46.866Z,5.77
2018-09-08T10:40:16.075Z,6.73
2018-09-08T10:42:44.819Z,6.53
2018-09-08T10:45:13.953Z,5.57
2018-09-08T10:47:42.966Z,6.17
2018-09-08T10:50:12.183Z,5.50
2018-09-08T10:52:42.898Z,6.00
2018-09-08T10:55:11.675Z,5.83
2018-09-08T10:57:40.599Z,6.60
2018-09-08T11:00:09.898Z,4.87
2018-09-08T11:02:38.966Z,5.87
2018-09-08T11:05:07.541Z,5.53
2018-09-08T11:07:36.506Z,5.90
2018-09-08T11:10:06.134Z,6.07
2018-09-08T11:12:35.247Z,6.33
2018-09-08T11:15:04.162Z,6.03
2018-09-08T11:17:33.218Z,5.97
2018-09-08T11:20:02.095Z,7.30
2018-09-08T11:22:30.886Z,8.47
2018-09-08T11:24:59.976Z,7.53
2018-09-08T11:27:28.755Z,7.33
2018-09-08T11:29:57.512Z,7.33
2018-09-08T11:32:26.535Z,8.37
2018-09-08T11:34:55.530Z,6.97
2018-09-08T11:37:24.350Z,5.90
2018-09-08T11:39:54.130Z,5.07
2018-09-08T11:42:23.138Z,4.80
2018-09-08T11:44:52.261Z,3.87
2018-09-08T11:47:21.222Z,4.37
2018-09-08T11:49:50.014Z,3.60
2018-09-08T11:52:18.784Z,3.20
2018-09-08T11:54:48.308Z,4.00
2018-09-08T11:57:17.398Z,2.93
2018-09-08T11:59:46.499Z,2.87
2018-09-08T12:02:15.331Z,4.57
2018-09-08T12:04:44.086Z,3.03
2018-09-08T12:07:12.849Z,2.43
2018-09-08T12:09:41.726Z,2.73
2018-09-08T12:12:10.834Z,2.53
2018-09-08T12:14:39.622Z,4.40
2018-09-08T12:17:08.436Z,2.20
2018-09-08T12:19:38.078Z,1.90
2018-09-08T12:22:07.235Z,2.10
2018-09-08T12:24:36.037Z,2.30
2018-09-08T12:27:04.998Z,3.13
2018-09-08T12:29:33.763Z,2.07
2018-09-08T12:32:02.569Z,2.93
2018-09-08T12:34:31.343Z,1.70
2018-09-08T12:37:00.127Z,2.43
2018-09-08T12:39:28.892Z,1.23
2018-09-08T12:41:57.910Z,2.50
2018-09-08T12:44:26.924Z,1.43
2018-09-08T12:46:55.890Z,1.93
2018-09-08T12:49:25.010Z,3.63
2018-09-08T12:51:54.077Z,1.70
2018-09-08T12:54:22.862Z,2.47
2018-09-08T12:56:51.989Z,1.17
2018-09-08T12:59:20.776Z,1.70
2018-09-08T13:01:49.854Z,3.60
2018-09-08T13:04:18.840Z,1.83
2018-09-08T13:06:47.622Z,1.77
2018-09-08T13:09:16.423Z,1.90
2018-09-08T13:11:45.218Z,3.80
2018-09-08T13:14:14.041Z,1.17
2018-09-08T13:16:42.823Z,1.27
2018-09-08T13:19:11.672Z,3.00
2018-09-08T13:21:40.527Z,2.50
2018-09-08T13:24:09.376Z,0.90
2018-09-08T13:26:38.499Z,2.87
2018-09-08T13:29:07.360Z,1.10
2018-09-08T13:31:36.174Z,0.90
2018-09-08T13:34:04.955Z,1.33
2018-09-08T13:36:33.733Z,1.40
2018-09-08T13:39:02.674Z,3.50
2018-09-08T13:41:31.450Z,0.60
2018-09-08T13:44:00.222Z,0.70
2018-09-08T13:46:29.043Z,1.67
2018-09-08T13:48:57.819Z,1.80
2018-09-08T13:51:27.142Z,3.70
2018-09-08T13:53:55.936Z,0.70
2018-09-08T13:56:24.706Z,1.20
2018-09-08T13:58:53.503Z,1.33
2018-09-08T14:01:22.308Z,2.27
2018-09-08T14:03:51.154Z,0.73
2018-09-08T14:06:19.947Z,2.27
2018-09-08T14:08:48.719Z,2.30
2018-09-08T14:11:17.498Z,1.00
2018-09-08T14:13:46.259Z,1.33
2018-09-08T14:16:15.036Z,1.43
2018-09-08T14:18:43.878Z,1.20
2018-09-08T14:21:12.724Z,1.93
2018-09-08T14:23:41.624Z,1.30
2018-09-08T14:26:10.429Z,0.70
2018-09-08T14:28:39.253Z,0.70
2018-09-08T14:31:08.038Z,1.60
2018-09-08T14:33:36.801Z,2.53
2018-09-08T14:36:05.618Z,2.00
2018-09-08T14:38:34.381Z,1.37
2018-09-08T14:41:03.534Z,4.97
2018-09-08T14:43:32.278Z,0.80
2018-09-08T14:46:01.059Z,0.80
2018-09-08T14:48:29.887Z,1.77
2018-09-08T14:50:58.689Z,1.23
2018-09-08T14:53:27.464Z,0.60
2018-09-08T14:55:56.247Z,2.30
2018-09-08T14:58:25.063Z,0.80
2018-09-08T15:00:54.201Z,1.00
2018-09-08T15:03:22.988Z,2.20
2018-09-08T15:05:51.991Z,1.60
2018-09-08T15:08:20.770Z,0.80
2018-09-08T15:10:49.547Z,3.40
2018-09-08T15:13:18.362Z,0.87
2018-09-08T15:15:47.122Z,0.50
2018-09-08T15:18:15.932Z,1.67
2018-09-08T15:20:44.722Z,1.43
2018-09-08T15:23:13.546Z,1.43
2018-09-08T15:25:42.330Z,2.33
2018-09-08T15:28:11.145Z,1.10
2018-09-08T15:30:39.927Z,2.27
2018-09-08T15:33:08.715Z,1.70
2018-09-08T15:35:37.516Z,2.53
2018-09-08T15:38:06.316Z,1.03
2018-09-08T15:40:35.103Z,1.63
2018-09-08T15:43:03.886Z,2.33
2018-09-08T15:45:32.726Z,5.40
2018-09-08T15:48:01.479Z,2.23
2018-09-08T15:50:30.268Z,0.83
2018-09-08T15:52:59.065Z,1.87
2018-09-08T15:55:27.871Z,1.40
2018-09-08T15:57:56.650Z,1.70
2018-09-08T16:00:25.459Z,1.33
2018-09-08T16:02:54.270Z,1.43
2018-09-08T16:05:23.090Z,1.20
2018-09-08T16:07:51.882Z,3.07
2018-09-08T16:10:20.679Z,1.90
2018-09-08T16:12:49.469Z,0.90
2018-09-08T16:15:18.314Z,1.20
2018-09-08T16:17:47.143Z,1.83
2018-09-08T16:20:15.935Z,0.97
2018-09-08T16:22:45.324Z,3.70
2018-09-08T16:25:14.109Z,3.90
2018-09-08T16:27:42.921Z,2.60
2018-09-08T16:30:11.743Z,2.87
2018-09-08T16:32:40.531Z,3.20
2018-09-08T16:35:09.327Z,4.43
2018-09-08T16:37:38.130Z,2.83
2018-09-08T16:40:06.936Z,3.10
2018-09-08T16:42:35.731Z,3.03
2018-09-08T16:45:04.882Z,2.23
2018-09-08T16:47:33.643Z,3.33
2018-09-08T16:50:02.930Z,1.27
2018-09-08T16:52:32.104Z,4.27
2018-09-08T16:55:01.431Z,2.20
2018-09-08T16:57:30.528Z,4.93
2018-09-08T16:59:59.582Z,1.60
2018-09-08T17:02:28.362Z,2.23
2018-09-08T17:04:57.203Z,2.27
2018-09-08T17:07:25.966Z,2.23
2018-09-08T17:09:55.107Z,3.20
2018-09-08T17:12:23.871Z,1.40
2018-09-08T17:14:52.656Z,3.63
2018-09-08T17:17:21.449Z,3.57
2018-09-08T17:19:50.581Z,2.00
2018-09-08T17:22:19.606Z,4.30
2018-09-08T17:24:48.380Z,3.30
2018-09-08T17:27:17.154Z,3.67
2018-09-08T17:29:46.268Z,1.03
2018-09-08T17:32:15.081Z,2.30
2018-09-08T17:34:44.171Z,5.67
2018-09-08T17:37:12.958Z,2.20
2018-09-08T17:39:41.746Z,4.07
2018-09-08T17:42:10.551Z,1.87
2018-09-08T17:44:39.318Z,1.93
2018-09-08T17:47:08.091Z,2.40
2018-09-08T17:49:37.222Z,2.07
2018-09-08T17:52:06.505Z,3.60
2018-09-08T17:54:35.363Z,2.00
2018-09-08T17:57:04.166Z,1.90
2018-09-08T17:59:33.782Z,1.43
2018-09-08T18:02:02.605Z,1.20
2018-09-08T18:04:31.668Z,1.83
2018-09-08T18:07:00.474Z,5.67
2018-09-08T18:09:29.275Z,1.80
2018-09-08T18:11:58.703Z,3.03
2018-09-08T18:14:27.682Z,2.33
2018-09-08T18:16:56.719Z,1.47
2018-09-08T18:19:25.774Z,3.67
2018-09-08T18:21:54.882Z,3.10
2018-09-08T18:24:23.730Z,1.50
2018-09-08T18:26:52.512Z,2.00
2018-09-08T18:29:21.333Z,1.30
2018-09-08T18:31:50.116Z,1.23
2018-09-08T18:34:19.123Z,3.73
2018-09-08T18:36:47.908Z,1.63
2018-09-08T18:39:16.712Z,3.83
2018-09-08T18:41:45.656Z,1.83
2018-09-08T18:44:14.432Z,2.40
2018-09-08T18:46:43.257Z,2.70
2018-09-08T18:49:12.064Z,1.93
2018-09-08T18:51:40.853Z,2.57
2018-09-08T18:54:09.700Z,1.37
2018-09-08T18:56:38.523Z,5.13
2018-09-08T18:59:07.667Z,2.67
2018-09-08T19:01:37.068Z,3.17
2018-09-08T19:04:05.843Z,1.20
2018-09-08T19:06:34.729Z,3.37
2018-09-08T19:09:03.703Z,1.70
2018-09-08T19:11:32.754Z,5.13
2018-09-08T19:14:01.551Z,3.00
2018-09-08T19:16:30.516Z,1.60
2018-09-08T19:18:59.377Z,1.50
2018-09-08T19:21:28.159Z,1.60
2018-09-08T19:24:02.854Z,3.10
2018-09-08T19:26:38.370Z,1.10
2018-09-08T19:29:12.260Z,3.23
2018-09-08T19:31:41.488Z,1.50
2018-09-08T19:34:10.239Z,2.03
2018-09-08T19:36:38.999Z,1.90
2018-09-08T19:39:09.263Z,4.23
2018-09-08T19:41:38.050Z,1.57
2018-09-08T19:44:06.922Z,2.30
2018-09-08T19:46:41.145Z,1.87
2018-09-08T19:49:10.195Z,1.50
2018-09-08T19:51:39.266Z,1.63
2018-09-08T19:54:08.035Z,1.23
2018-09-08T19:56:42.792Z,2.23
2018-09-08T19:59:11.889Z,1.53
2018-09-08T20:01:40.623Z,1.97
2018-09-08T20:04:09.429Z,1.50
2018-09-08T20:06:38.446Z,1.93
2018-09-08T20:09:08.047Z,1.50
2018-09-08T20:11:36.865Z,2.60
2018-09-08T20:14:05.743Z,2.00
2018-09-08T20:16:34.572Z,3.47
2018-09-08T20:19:04.702Z,2.27
2018-09-08T20:21:33.838Z,2.53
2018-09-08T20:24:02.615Z,2.30
2018-09-08T20:26:31.634Z,1.40
2018-09-08T20:29:00.448Z,3.30
2018-09-08T20:31:29.215Z,1.70
2018-09-08T20:33:58.286Z,3.57
2018-09-08T20:36:27.774Z,1.90
2018-09-08T20:38:56.874Z,1.40
2018-09-08T20:41:25.646Z,4.07
2018-09-08T20:43:54.766Z,1.70
2018-09-08T20:46:23.863Z,2.27
2018-09-08T20:48:53.991Z,2.13
2018-09-08T20:51:23.058Z,2.27
2018-09-08T20:53:52.063Z,1.43
2018-09-08T20:56:20.862Z,2.13
2018-09-08T20:58:49.687Z,2.90
2018-09-08T21:01:18.459Z,3.43
2018-09-08T21:03:47.623Z,2.87
2018-09-08T21:06:16.702Z,1.30
2018-09-08T21:08:45.475Z,3.07
2018-09-08T21:11:14.251Z,3.53
2018-09-08T21:13:43.570Z,1.40
2018-09-08T21:16:12.370Z,2.60
2018-09-08T21:18:41.175Z,2.17
2018-09-08T21:21:09.942Z,1.93
2018-09-08T21:23:38.722Z,2.97
2018-09-08T21:26:07.555Z,2.00
2018-09-08T21:28:36.334Z,3.27
2018-09-08T21:31:05.386Z,1.23
2018-09-08T21:33:34.822Z,3.23
2018-09-08T21:36:03.987Z,1.73
2018-09-08T21:38:32.990Z,3.93
2018-09-08T21:41:01.966Z,2.87
2018-09-08T21:43:30.978Z,4.07
2018-09-08T21:45:59.746Z,1.50
2018-09-08T21:48:28.842Z,1.17
2018-09-08T21:50:57.954Z,2.23
2018-09-08T21:53:27.154Z,3.73
2018-09-08T21:55:56.239Z,1.83
2018-09-08T21:58:25.330Z,2.00
2018-09-08T22:00:57.084Z,1.30
2018-09-08T22:03:27.486Z,3.43
2018-09-08T22:05:56.722Z,1.33
2018-09-08T22:08:25.882Z,0.90
2018-09-08T22:10:54.651Z,2.60
2018-09-08T22:13:23.431Z,2.63
2018-09-08T22:15:52.211Z,2.43
2018-09-08T22:18:21.170Z,3.23
2018-09-08T22:20:49.979Z,3.87
2018-09-08T22:23:19.146Z,1.27
2018-09-08T22:25:48.250Z,1.57
2018-09-08T22:28:17.346Z,2.20
2018-09-08T22:30:46.591Z,2.70
2018-09-08T22:33:15.454Z,2.50
2018-09-08T22:35:44.858Z,1.40
2018-09-08T22:38:14.375Z,3.40
2018-09-08T22:40:43.179Z,2.73
2018-09-08T22:43:12.206Z,2.30
2018-09-08T22:45:41.191Z,1.90
2018-09-08T22:48:10.294Z,1.27
2018-09-08T22:50:39.746Z,1.83
2018-09-08T22:53:09.470Z,1.97
2018-09-08T22:55:38.592Z,1.30
2018-09-08T22:58:08.570Z,3.10
2018-09-08T23:00:37.415Z,4.57
2018-09-08T23:03:06.698Z,3.63
2018-09-08T23:05:35.470Z,2.47
2018-09-08T23:08:04.275Z,3.73
2018-09-08T23:10:33.299Z,2.33
2018-09-08T23:13:02.068Z,1.73
2018-09-08T23:15:31.154Z,1.77
2018-09-08T23:18:00.261Z,4.23
2018-09-08T23:20:29.338Z,1.80
2018-09-08T23:22:59.002Z,3.33
2018-09-08T23:25:28.082Z,3.23
2018-09-08T23:27:57.134Z,2.40
2018-09-08T23:30:26.117Z,1.37
2018-09-08T23:32:55.117Z,1.70
2018-09-08T23:35:24.110Z,2.90
2018-09-08T23:37:53.090Z,1.30
2018-09-08T23:40:22.878Z,2.70
2018-09-08T23:42:51.642Z,3.97
2018-09-08T23:45:20.390Z,1.37
2018-09-08T23:47:49.996Z,1.30
2018-09-08T23:50:19.005Z,2.07
2018-09-08T23:52:47.974Z,2.40
2018-09-08T23:55:16.880Z,2.37
2018-09-08T23:57:45.655Z,3.23
